createdAt,value
2019-01-03T00:03:05.053Z,-2.90
2019-01-03T00:05:48.656Z,-2.80
2019-01-03T00:08:32.098Z,-2.80
2019-01-03T00:11:20.828Z,-2.80
2019-01-03T00:14:18.052Z,-2.90
2019-01-03T00:17:17.852Z,-2.90
2019-01-03T00:20:19.293Z,-2.90
2019-01-03T00:23:07.014Z,-2.90
2019-01-03T00:25:53.412Z,-2.90
2019-01-03T00:28:56.155Z,-3.00
2019-01-03T00:31:56.706Z,-2.90
2019-01-03T00:34:42.914Z,-2.90
2019-01-03T00:37:30.247Z,-3.00
2019-01-03T00:40:08.362Z,-3.00
2019-01-03T00:42:58.748Z,-3.10
2019-01-03T00:45:54.235Z,-3.20
2019-01-03T00:48:47.900Z,-3.20
2019-01-03T00:54:48.998Z,-3.30
2019-01-03T00:57:52.677Z,-3.20
2019-01-03T01:00:34.261Z,-3.40
2019-01-03T01:03:24.882Z,-3.30
2019-01-03T01:06:20.757Z,-3.30
2019-01-03T01:09:31.253Z,-3.40
2019-01-03T01:12:18.780Z,-3.20
2019-01-03T01:15:06.028Z,-3.20
2019-01-03T01:17:54.915Z,-3.10
2019-01-03T01:20:42.256Z,-3.10
2019-01-03T01:23:29.733Z,-3.00
2019-01-03T01:26:20.440Z,-2.90
2019-01-03T01:29:08.180Z,-2.90
2019-01-03T01:31:55.621Z,-2.90
2019-01-03T01:34:42.961Z,-2.90
2019-01-03T01:37:31.180Z,-3.00
2019-01-03T01:40:20.029Z,-3.00
2019-01-03T01:43:09.045Z,-3.10
2019-01-03T01:45:56.309Z,-3.20
2019-01-03T01:48:57.167Z,-3.20
2019-01-03T01:54:43.133Z,-3.20
2019-01-03T01:57:30.705Z,-3.20
2019-01-03T02:00:18.407Z,-3.20
2019-01-03T02:03:05.992Z,-3.20
2019-01-03T02:06:31.238Z,-3.30
2019-01-03T02:09:29.205Z,-3.30
2019-01-03T02:12:32.389Z,-3.40
2019-01-03T02:15:28.761Z,-3.50
2019-01-03T02:18:20.406Z,-3.60
2019-01-03T02:21:18.057Z,-3.60
2019-01-03T02:24:05.666Z,-3.70
2019-01-03T02:26:53.377Z,-3.70
2019-01-03T02:32:46.316Z,-3.80
2019-01-03T02:35:35.410Z,-3.80
2019-01-03T02:41:30.118Z,-3.90
2019-01-03T02:44:17.753Z,-3.90
2019-01-03T02:47:22.985Z,-3.90
2019-01-03T02:53:31.160Z,-3.80
2019-01-03T02:56:28.836Z,-3.90
2019-01-03T02:59:20.851Z,-3.80
2019-01-03T03:02:18.803Z,-3.90
2019-01-03T03:05:07.597Z,-4.10
2019-01-03T03:07:53.645Z,-4.10
2019-01-03T03:13:52.938Z,-4.20
2019-01-03T03:16:36.563Z,-4.30
2019-01-03T03:19:28.946Z,-4.30
2019-01-03T03:22:22.353Z,-4.30
2019-01-03T03:25:16.985Z,-4.30
2019-01-03T03:28:08.378Z,-4.30
2019-01-03T03:30:57.241Z,-4.30
2019-01-03T03:34:04.976Z,-4.30
2019-01-03T03:37:07.190Z,-4.20
2019-01-03T03:39:59.016Z,-4.20
2019-01-03T03:42:52.357Z,-4.30
2019-01-03T03:45:53.181Z,-4.30
2019-01-03T03:48:41.041Z,-4.30
2019-01-03T03:51:29.035Z,-4.20
2019-01-03T03:54:29.063Z,-4.30
2019-01-03T03:57:22.855Z,-4.20
2019-01-03T04:00:12.586Z,-4.30
2019-01-03T04:03:21.856Z,-4.20
2019-01-03T04:06:09.545Z,-4.30
2019-01-03T04:09:01.401Z,-4.30
2019-01-03T04:11:53.076Z,-4.30
2019-01-03T04:14:41.068Z,-4.40
2019-01-03T04:17:29.988Z,-4.40
2019-01-03T04:20:09.442Z,-4.50
2019-01-03T04:22:56.048Z,-4.50
2019-01-03T04:25:45.519Z,-4.60
2019-01-03T04:28:49.100Z,-4.70
2019-01-03T04:31:45.322Z,-4.70
2019-01-03T04:34:33.000Z,-4.80
2019-01-03T04:37:21.654Z,-4.90
2019-01-03T04:40:29.452Z,-4.90
2019-01-03T04:43:18.546Z,-4.90
2019-01-03T04:46:07.405Z,-4.90
2019-01-03T04:48:48.939Z,-5.00
2019-01-03T04:51:35.253Z,-5.00
2019-01-03T04:54:29.462Z,-5.10
2019-01-03T04:57:30.487Z,-5.10
2019-01-03T05:00:22.321Z,-5.10
2019-01-03T05:03:20.102Z,-5.30
2019-01-03T05:06:19.088Z,-5.30
2019-01-03T05:09:09.959Z,-5.30
2019-01-03T05:14:59.165Z,-5.30
2019-01-03T05:20:45.433Z,-5.30
2019-01-03T05:23:34.214Z,-5.40
2019-01-03T05:26:25.240Z,-5.40
2019-01-03T05:29:18.312Z,-5.40
2019-01-03T05:32:13.274Z,-5.40
2019-01-03T05:35:18.470Z,-5.40
2019-01-03T05:38:05.245Z,-5.40
2019-01-03T05:40:54.062Z,-5.30
2019-01-03T05:46:54.343Z,-5.30
2019-01-03T05:49:42.167Z,-5.30
2019-01-03T05:52:41.765Z,-5.30
2019-01-03T05:55:29.307Z,-5.30
2019-01-03T05:58:17.843Z,-5.30
2019-01-03T06:00:59.174Z,-5.30
2019-01-03T06:03:49.649Z,-5.30
2019-01-03T06:06:44.107Z,-5.30
2019-01-03T06:09:31.660Z,-5.20
2019-01-03T06:12:19.083Z,-5.20
2019-01-03T06:15:13.568Z,-5.10
2019-01-03T06:21:18.330Z,-5.00
2019-01-03T06:24:07.153Z,-5.00
2019-01-03T06:26:57.172Z,-4.90
2019-01-03T06:29:42.217Z,-4.90
2019-01-03T06:32:29.862Z,-4.80
2019-01-03T06:35:17.720Z,-4.80
2019-01-03T06:38:07.258Z,-4.80
2019-01-03T06:41:08.250Z,-4.70
2019-01-03T06:43:57.050Z,-4.70
2019-01-03T06:49:49.402Z,-4.70
2019-01-03T06:52:41.453Z,-4.70
2019-01-03T06:55:32.193Z,-4.80
2019-01-03T06:58:21.685Z,-4.80
2019-01-03T07:01:31.275Z,-4.80
2019-01-03T07:04:22.394Z,-4.80
2019-01-03T07:07:13.079Z,-4.80
2019-01-03T07:10:05.338Z,-4.80
2019-01-03T07:12:53.802Z,-4.70
2019-01-03T07:15:42.644Z,-4.70
2019-01-03T07:18:30.369Z,-4.70
2019-01-03T07:21:17.762Z,-4.60
2019-01-03T07:24:18.158Z,-4.60
2019-01-03T07:27:05.717Z,-4.50
2019-01-03T07:29:57.311Z,-4.40
2019-01-03T07:32:43.672Z,-4.30
2019-01-03T07:35:37.090Z,-4.20
2019-01-03T07:38:30.583Z,-4.20
2019-01-03T07:41:18.472Z,-4.10
2019-01-03T07:44:25.717Z,-4.00
2019-01-03T07:47:09.038Z,-3.90
2019-01-03T07:49:56.672Z,-3.80
2019-01-03T07:52:44.554Z,-3.80
2019-01-03T07:55:32.494Z,-3.70
2019-01-03T07:58:20.240Z,-3.70
2019-01-03T08:01:17.582Z,-3.60
2019-01-03T08:04:18.646Z,-3.50
2019-01-03T08:07:06.108Z,-3.50
2019-01-03T08:09:54.984Z,-3.40
2019-01-03T08:12:43.761Z,-3.40
2019-01-03T08:15:47.412Z,-3.30
2019-01-03T08:18:30.525Z,-3.20
2019-01-03T08:21:23.917Z,-3.10
2019-01-03T08:24:29.612Z,-3.10
2019-01-03T08:27:18.031Z,-3.00
2019-01-03T08:30:06.465Z,-3.00
2019-01-03T08:33:12.474Z,-2.90
2019-01-03T08:39:31.218Z,-2.80
2019-01-03T08:42:18.569Z,-2.80
2019-01-03T08:45:07.362Z,-2.70
2019-01-03T08:56:53.709Z,-2.50
2019-01-03T08:59:48.836Z,-2.50
2019-01-03T09:02:37.877Z,-2.50
2019-01-03T09:05:29.765Z,-2.40
2019-01-03T09:08:18.560Z,-2.30
2019-01-03T09:14:24.040Z,-2.20
2019-01-03T09:17:17.777Z,-2.10
2019-01-03T09:20:07.163Z,-2.00
2019-01-03T09:22:56.107Z,-2.00
2019-01-03T09:25:44.870Z,-1.90
2019-01-03T09:28:32.494Z,-1.80
2019-01-03T09:31:37.762Z,-1.70
2019-01-03T09:34:33.964Z,-1.60
2019-01-03T09:37:11.895Z,-1.40
2019-01-03T09:40:05.838Z,-1.30
2019-01-03T09:43:09.867Z,-1.20
2019-01-03T09:45:44.455Z,-1.10
2019-01-03T09:48:13.336Z,-1.00
2019-01-03T09:50:44.916Z,-0.90
2019-01-03T09:53:17.877Z,-0.80
2019-01-03T09:55:47.613Z,-0.60
2019-01-03T09:58:21.453Z,-0.50
2019-01-03T10:00:54.722Z,-0.40
2019-01-03T10:03:24.433Z,-0.20
2019-01-03T10:05:57.693Z,-0.10
2019-01-03T10:08:29.934Z,-0.10
2019-01-03T10:10:59.735Z,0.00
2019-01-03T10:13:33.497Z,0.10
2019-01-03T10:16:07.749Z,0.30
2019-01-03T10:18:37.472Z,0.40
2019-01-03T10:21:13.466Z,0.50
2019-01-03T10:23:45.997Z,0.50
2019-01-03T10:26:19.529Z,0.50
2019-01-03T10:28:49.240Z,0.50
2019-01-03T10:31:25.049Z,0.50
2019-01-03T10:33:57.662Z,0.50
2019-01-03T10:36:29.962Z,0.60
2019-01-03T10:38:59.742Z,0.60
2019-01-03T10:41:34.017Z,0.70
2019-01-03T10:44:05.986Z,0.70
2019-01-03T10:46:35.714Z,0.70
2019-01-03T10:49:09.759Z,0.70
2019-01-03T10:51:45.382Z,0.70
2019-01-03T10:54:17.778Z,0.70
2019-01-03T10:56:47.487Z,0.80
2019-01-03T10:59:19.950Z,0.80
2019-01-03T11:01:49.649Z,0.90
2019-01-03T11:04:22.368Z,1.00
2019-01-03T11:09:35.353Z,1.10
2019-01-03T11:12:08.313Z,1.20
2019-01-03T11:14:38.101Z,1.40
2019-01-03T11:17:09.408Z,1.50
2019-01-03T11:19:46.425Z,1.70
2019-01-03T11:22:21.817Z,1.90
2019-01-03T11:25:01.443Z,2.00
2019-01-03T11:27:32.865Z,2.10
2019-01-03T11:30:09.101Z,2.10
2019-01-03T11:32:43.358Z,2.30
2019-01-03T11:35:10.878Z,2.50
2019-01-03T11:37:43.081Z,2.60
2019-01-03T11:40:30.814Z,2.80
2019-01-03T11:43:00.584Z,3.00
2019-01-03T11:45:54.635Z,2.90
2019-01-03T11:48:24.431Z,3.00
2019-01-03T11:50:56.698Z,3.00
2019-01-03T11:53:31.880Z,3.20
2019-01-03T11:56:01.735Z,3.30
2019-01-03T11:58:32.838Z,3.40
2019-01-03T12:01:06.337Z,3.50
2019-01-03T12:03:36.044Z,3.50
2019-01-03T12:06:11.727Z,3.50
2019-01-03T12:08:44.392Z,3.60
2019-01-03T12:11:14.208Z,3.60
2019-01-03T12:13:45.625Z,3.60
2019-01-03T12:16:18.153Z,3.30
2019-01-03T12:18:47.850Z,3.10
2019-01-03T12:21:20.681Z,2.50
2019-01-03T12:23:50.391Z,2.50
2019-01-03T12:26:21.688Z,2.80
2019-01-03T12:29:07.045Z,3.00
2019-01-03T12:31:36.821Z,2.80
2019-01-03T12:34:09.549Z,2.90
2019-01-03T12:36:55.688Z,2.50
2019-01-03T12:39:22.909Z,2.30
2019-01-03T12:41:56.264Z,2.10
2019-01-03T12:44:26.040Z,1.90
2019-01-03T12:46:58.489Z,1.60
2019-01-03T12:49:30.694Z,1.50
2019-01-03T12:52:00.546Z,1.60
2019-01-03T12:54:33.762Z,1.60
2019-01-03T12:57:07.270Z,1.50
2019-01-03T12:59:37.122Z,1.60
2019-01-03T13:02:09.837Z,1.50
2019-01-03T13:04:45.258Z,1.50
2019-01-03T13:07:19.512Z,1.50
2019-01-03T13:09:47.010Z,1.40
2019-01-03T13:12:19.292Z,1.40
2019-01-03T13:14:49.073Z,1.40
2019-01-03T13:17:21.777Z,1.50
2019-01-03T13:19:54.726Z,1.30
2019-01-03T13:22:24.431Z,1.20
2019-01-03T13:24:56.929Z,1.20
2019-01-03T13:27:26.707Z,1.20
2019-01-03T13:30:00.361Z,1.30
2019-01-03T13:32:32.943Z,1.30
2019-01-03T13:35:02.648Z,1.20
2019-01-03T13:37:33.959Z,1.20
2019-01-03T13:40:07.166Z,1.10
2019-01-03T13:42:36.858Z,1.00
2019-01-03T13:45:10.507Z,1.00
2019-01-03T13:47:42.726Z,1.00
2019-01-03T13:50:12.592Z,1.10
2019-01-03T13:52:45.166Z,1.10
2019-01-03T13:55:14.964Z,1.00
2019-01-03T13:57:48.385Z,1.00
2019-01-03T14:00:21.103Z,0.90
2019-01-03T14:02:50.801Z,0.90
2019-01-03T14:05:48.227Z,1.00
2019-01-03T14:08:22.255Z,1.00
2019-01-03T14:10:54.560Z,0.90
2019-01-03T14:13:24.261Z,0.90
2019-01-03T14:15:58.035Z,0.90
2019-01-03T14:18:30.714Z,1.00
2019-01-03T14:21:00.420Z,1.00
2019-01-03T14:23:43.527Z,1.00
2019-01-03T14:26:13.230Z,1.10
2019-01-03T14:28:45.973Z,1.10
2019-01-03T14:31:18.341Z,1.00
2019-01-03T14:33:48.165Z,1.10
2019-01-03T14:36:20.698Z,1.00
2019-01-03T14:38:50.394Z,1.00
2019-01-03T14:41:21.793Z,1.00
2019-01-03T14:44:06.626Z,1.00
2019-01-03T14:46:36.443Z,1.00
2019-01-03T14:49:09.060Z,0.90
2019-01-03T14:51:38.865Z,0.90
2019-01-03T14:54:11.244Z,0.90
2019-01-03T14:56:44.136Z,0.90
2019-01-03T14:59:13.829Z,0.90
2019-01-03T15:01:45.496Z,0.90
2019-01-03T15:04:15.197Z,0.90
2019-01-03T15:06:48.040Z,0.80
2019-01-03T15:09:38.817Z,0.90
2019-01-03T15:12:10.211Z,0.80
2019-01-03T15:14:46.044Z,0.80
2019-01-03T15:17:18.675Z,0.80
2019-01-03T15:19:56.209Z,0.80
2019-01-03T15:22:23.392Z,0.70
2019-01-03T15:24:56.486Z,0.70
2019-01-03T15:27:26.189Z,0.60
2019-01-03T15:29:59.045Z,0.60
2019-01-03T15:32:31.440Z,0.50
2019-01-03T15:35:01.231Z,0.50
2019-01-03T15:37:45.837Z,0.40
2019-01-03T15:40:20.249Z,0.40
2019-01-03T15:42:47.461Z,0.40
2019-01-03T15:45:20.229Z,0.50
2019-01-03T15:47:50.015Z,0.40
2019-01-03T15:50:35.433Z,0.40
2019-01-03T15:53:08.189Z,0.40
2019-01-03T15:55:37.913Z,0.40
2019-01-03T15:58:10.585Z,0.40
2019-01-03T16:00:42.868Z,0.40
2019-01-03T16:03:12.577Z,0.30
2019-01-03T16:05:46.740Z,0.30
2019-01-03T16:08:24.728Z,0.30
2019-01-03T16:11:02.081Z,0.30
2019-01-03T16:13:34.646Z,0.30
2019-01-03T16:16:06.832Z,0.30
2019-01-03T16:18:36.622Z,0.30
2019-01-03T16:21:10.721Z,0.40
2019-01-03T16:23:45.156Z,0.30
2019-01-03T16:26:26.576Z,0.40
2019-01-03T16:28:57.509Z,0.40
2019-01-03T16:31:27.373Z,0.40
2019-01-03T16:33:59.998Z,0.40
2019-01-03T16:36:38.601Z,0.40
2019-01-03T16:39:09.814Z,0.50
2019-01-03T16:41:44.342Z,0.50
2019-01-03T16:44:12.176Z,0.50
2019-01-03T16:46:44.638Z,0.50
2019-01-03T16:49:14.357Z,0.50
2019-01-03T16:51:46.917Z,0.50
2019-01-03T16:54:18.890Z,0.50
2019-01-03T16:56:48.667Z,0.50
2019-01-03T16:59:20.681Z,0.40
2019-01-03T17:01:50.452Z,0.50
2019-01-03T17:04:22.214Z,0.50
2019-01-03T17:06:56.302Z,0.50
2019-01-03T17:09:39.385Z,0.50
2019-01-03T17:12:19.649Z,0.40
2019-01-03T17:14:49.421Z,0.40
2019-01-03T17:17:22.372Z,0.50
2019-01-03T17:19:55.177Z,0.40
2019-01-03T17:22:24.953Z,0.50
2019-01-03T17:24:57.661Z,0.50
2019-01-03T17:27:36.572Z,0.50
2019-01-03T17:30:14.351Z,0.50
2019-01-03T17:32:46.953Z,0.50
2019-01-03T17:35:19.026Z,0.50
2019-01-03T17:37:48.741Z,0.50
2019-01-03T17:40:22.550Z,0.50
2019-01-03T17:42:55.624Z,0.50
2019-01-03T17:45:25.325Z,0.50
2019-01-03T17:47:58.100Z,0.40
2019-01-03T17:50:36.369Z,0.50
2019-01-03T17:53:13.432Z,0.50
2019-01-03T17:55:46.810Z,0.40
2019-01-03T17:58:19.087Z,0.50
2019-01-03T18:00:49.426Z,0.50
2019-01-03T18:03:22.202Z,0.50
2019-01-03T18:06:08.599Z,0.50
2019-01-03T18:08:35.758Z,0.50
2019-01-03T18:11:09.104Z,0.50
2019-01-03T18:13:38.840Z,0.60
2019-01-03T18:16:11.829Z,0.50
2019-01-03T18:18:44.398Z,0.60
2019-01-03T18:21:14.152Z,0.60
2019-01-03T18:23:47.317Z,0.60
2019-01-03T18:26:19.534Z,0.60
2019-01-03T18:28:49.336Z,0.60
2019-01-03T18:31:21.832Z,0.60
2019-01-03T18:33:56.629Z,0.50
2019-01-03T18:36:24.332Z,0.60
2019-01-03T18:39:01.417Z,0.60
2019-01-03T18:41:35.133Z,0.60
2019-01-03T18:44:08.542Z,0.60
2019-01-03T18:46:38.721Z,0.60
2019-01-03T18:49:10.227Z,0.60
2019-01-03T18:51:44.519Z,0.60
2019-01-03T18:54:11.916Z,0.60
2019-01-03T18:56:44.204Z,0.60
2019-01-03T18:59:13.910Z,0.60
2019-01-03T19:01:46.596Z,0.60
2019-01-03T19:04:20.181Z,0.60
2019-01-03T19:06:49.958Z,0.60
2019-01-03T19:09:24.212Z,0.70
2019-01-03T19:11:56.245Z,0.60
2019-01-03T19:14:26.084Z,0.60
2019-01-03T19:16:59.050Z,0.70
2019-01-03T19:19:31.461Z,0.70
2019-01-03T19:22:01.225Z,0.70
2019-01-03T19:24:38.144Z,0.70
2019-01-03T19:27:10.829Z,0.70
2019-01-03T19:29:43.649Z,0.70
2019-01-03T19:32:13.462Z,0.80
2019-01-03T19:34:46.526Z,0.70
2019-01-03T19:37:21.089Z,0.80
2019-01-03T19:39:47.994Z,0.80
2019-01-03T19:42:20.898Z,0.80
2019-01-03T19:44:50.621Z,0.80
2019-01-03T19:47:26.296Z,0.80
2019-01-03T19:49:59.319Z,0.80
2019-01-03T19:52:31.376Z,0.80
2019-01-03T19:55:01.182Z,0.80
2019-01-03T19:57:42.747Z,0.80
2019-01-03T20:00:15.355Z,0.70
2019-01-03T20:02:46.817Z,0.80
2019-01-03T20:05:20.384Z,0.70
2019-01-03T20:07:51.396Z,0.70
2019-01-03T20:10:22.717Z,0.70
2019-01-03T20:13:00.030Z,0.70
2019-01-03T20:15:32.675Z,0.70
2019-01-03T20:18:02.445Z,0.70
2019-01-03T20:20:35.859Z,0.70
2019-01-03T20:23:08.863Z,0.70
2019-01-03T20:25:38.665Z,0.60
2019-01-03T20:28:23.452Z,0.50
2019-01-03T20:30:55.470Z,0.50
2019-01-03T20:33:25.239Z,0.40
2019-01-03T20:35:57.240Z,0.40
2019-01-03T20:38:26.974Z,0.40
2019-01-03T20:41:02.097Z,0.40
2019-01-03T20:43:39.207Z,0.40
2019-01-03T20:46:10.117Z,0.40
2019-01-03T20:48:39.938Z,0.40
2019-01-03T20:51:12.791Z,0.40
2019-01-03T20:54:20.601Z,0.50
2019-01-03T20:56:50.479Z,0.50
2019-01-03T20:59:56.869Z,0.50
2019-01-03T21:02:26.681Z,0.50
2019-01-03T21:04:59.634Z,0.50
2019-01-03T21:07:32.078Z,0.50
2019-01-03T21:10:01.949Z,0.50
2019-01-03T21:12:37.935Z,0.40
2019-01-03T21:15:13.492Z,0.40
2019-01-03T21:17:50.421Z,0.40
2019-01-03T21:20:23.001Z,0.40
2019-01-03T21:22:55.604Z,0.40
2019-01-03T21:25:27.678Z,0.40
2019-01-03T21:27:59.108Z,0.40
2019-01-03T21:30:32.111Z,0.40
2019-01-03T21:33:03.799Z,0.40
2019-01-03T21:35:36.489Z,0.50
2019-01-03T21:38:10.282Z,0.50
2019-01-03T21:40:40.171Z,0.50
2019-01-03T21:43:12.496Z,0.50
2019-01-03T21:45:45.450Z,0.50
2019-01-03T21:48:19.009Z,0.40
2019-01-03T21:50:50.263Z,0.40
2019-01-03T21:53:22.985Z,0.40
2019-01-03T21:55:55.463Z,0.40
2019-01-03T21:58:25.198Z,0.50
2019-01-03T22:01:11.180Z,0.50
2019-01-03T22:03:44.732Z,0.50
2019-01-03T22:06:14.462Z,0.50
2019-01-03T22:08:46.376Z,0.50
2019-01-03T22:11:16.254Z,0.50
2019-01-03T22:14:00.866Z,0.40
2019-01-03T22:16:33.333Z,0.40
2019-01-03T22:19:03.050Z,0.40
2019-01-03T22:21:34.449Z,0.40
2019-01-03T22:24:09.208Z,0.40
2019-01-03T22:26:39.055Z,0.40
2019-01-03T22:29:21.158Z,0.40
2019-01-03T22:31:51.035Z,0.40
2019-01-03T22:34:23.805Z,0.30
2019-01-03T22:36:56.468Z,0.30
2019-01-03T22:39:31.949Z,0.20
2019-01-03T22:42:01.858Z,0.20
2019-01-03T22:44:45.706Z,0.20
2019-01-03T22:47:15.554Z,0.20
2019-01-03T22:49:46.966Z,0.20
2019-01-03T22:52:20.510Z,0.30
2019-01-03T22:54:50.344Z,0.30
2019-01-03T22:57:23.447Z,0.40
2019-01-03T22:59:56.091Z,0.40
2019-01-03T23:02:25.874Z,0.50
2019-01-03T23:05:23.088Z,0.50
2019-01-03T23:07:55.553Z,0.50
2019-01-03T23:10:25.463Z,0.50
2019-01-03T23:12:59.633Z,0.50
2019-01-03T23:15:33.708Z,0.50
2019-01-03T23:18:03.616Z,0.60
2019-01-03T23:20:35.010Z,0.60
2019-01-03T23:23:15.733Z,0.60
2019-01-03T23:25:47.161Z,0.60
2019-01-03T23:28:24.597Z,0.60
2019-01-03T23:30:57.646Z,0.60
2019-01-03T23:33:27.432Z,0.60
2019-01-03T23:36:00.340Z,0.60
2019-01-03T23:38:33.098Z,0.60
2019-01-03T23:41:02.884Z,0.70
2019-01-03T23:43:39.852Z,0.70
2019-01-03T23:46:11.263Z,0.70
2019-01-03T23:48:44.295Z,0.70
2019-01-03T23:51:14.107Z,0.70
2019-01-03T23:53:46.717Z,0.60
2019-01-03T23:56:20.918Z,0.60
2019-01-03T23:58:48.718Z,0.60
